createdAt,value
2017-06-14T00:00:43.726Z,13.65
2017-06-14T00:03:10.060Z,13.53
2017-06-14T00:05:36.431Z,14.02
2017-06-14T00:08:02.791Z,14.25
2017-06-14T00:10:29.134Z,15.76
2017-06-14T00:12:55.486Z,14.07
2017-06-14T00:15:21.918Z,13.96
2017-06-14T00:17:48.254Z,13.65
2017-06-14T00:20:14.630Z,13.58
2017-06-14T00:22:41.138Z,15.88
2017-06-14T00:25:07.490Z,14.83
2017-06-14T00:27:33.817Z,14.44
2017-06-14T00:30:00.238Z,15.29
2017-06-14T00:32:26.594Z,13.72
2017-06-14T00:34:52.914Z,14.27
2017-06-14T00:37:19.247Z,14.47
2017-06-14T00:39:45.610Z,14.55
2017-06-14T00:42:11.932Z,13.80
2017-06-14T00:44:38.249Z,13.66
2017-06-14T00:47:04.602Z,12.72
2017-06-14T00:49:30.938Z,12.83
2017-06-14T00:51:57.303Z,13.58
2017-06-14T00:54:23.643Z,12.95
2017-06-14T00:56:49.994Z,13.16
2017-06-14T00:59:16.343Z,13.66
2017-06-14T01:01:42.790Z,13.27
2017-06-14T01:04:09.140Z,14.00
2017-06-14T01:06:35.487Z,14.80
2017-06-14T01:09:01.838Z,15.11
2017-06-14T01:11:28.279Z,15.24
2017-06-14T01:13:54.660Z,15.35
2017-06-14T01:16:21.013Z,14.30
2017-06-14T01:18:47.369Z,13.24
2017-06-14T01:21:13.728Z,13.59
2017-06-14T01:23:40.072Z,13.77
2017-06-14T01:26:06.425Z,14.07
2017-06-14T01:28:32.747Z,14.10
2017-06-14T01:30:59.191Z,12.79
2017-06-14T01:33:25.539Z,12.37
2017-06-14T01:35:51.893Z,13.12
2017-06-14T01:38:18.268Z,12.41
2017-06-14T01:40:44.671Z,12.62
2017-06-14T01:43:11.002Z,13.64
2017-06-14T01:45:37.406Z,13.25
2017-06-14T01:48:03.796Z,12.66
2017-06-14T01:50:30.179Z,13.00
2017-06-14T01:52:56.505Z,12.54
2017-06-14T01:55:22.849Z,13.48
2017-06-14T01:57:49.207Z,14.53
2017-06-14T02:00:15.548Z,14.71
2017-06-14T02:02:41.904Z,14.23
2017-06-14T02:05:08.257Z,13.67
2017-06-14T02:07:34.647Z,13.48
2017-06-14T02:10:00.993Z,13.83
2017-06-14T02:12:27.319Z,13.61
2017-06-14T02:14:53.667Z,14.18
2017-06-14T02:17:20.025Z,13.83
2017-06-14T02:19:46.345Z,13.58
2017-06-14T02:22:12.683Z,13.09
2017-06-14T02:24:39.032Z,12.74
2017-06-14T02:27:06.618Z,13.45
2017-06-14T02:29:32.934Z,13.29
2017-06-14T02:31:59.263Z,13.23
2017-06-14T02:34:25.635Z,11.85
2017-06-14T02:36:51.946Z,12.17
2017-06-14T02:39:18.315Z,11.55
2017-06-14T02:41:44.679Z,11.37
2017-06-14T02:44:11.047Z,12.03
2017-06-14T02:46:37.369Z,12.35
2017-06-14T02:49:04.034Z,12.85
2017-06-14T02:51:30.363Z,11.85
2017-06-14T02:53:56.714Z,12.12
2017-06-14T02:56:23.060Z,12.04
2017-06-14T02:58:49.405Z,11.71
2017-06-14T03:01:15.755Z,12.66
2017-06-14T03:03:42.065Z,13.08
2017-06-14T03:06:08.461Z,13.64
2017-06-14T03:08:34.775Z,13.94
2017-06-14T03:11:01.114Z,13.70
2017-06-14T03:13:27.450Z,12.44
2017-06-14T03:15:53.783Z,11.72
2017-06-14T03:18:20.158Z,12.02
2017-06-14T03:20:52.481Z,12.49
2017-06-14T03:23:18.840Z,11.64
2017-06-14T03:25:45.198Z,11.74
2017-06-14T03:28:11.514Z,11.26
2017-06-14T03:30:37.838Z,11.95
2017-06-14T03:33:04.158Z,12.67
2017-06-14T03:35:30.497Z,11.93
2017-06-14T03:37:56.896Z,11.80
2017-06-14T03:40:23.221Z,12.19
2017-06-14T03:42:49.577Z,11.88
2017-06-14T03:45:15.917Z,11.98
2017-06-14T03:47:42.319Z,13.77
2017-06-14T03:50:08.644Z,14.20
2017-06-14T03:52:34.985Z,14.17
2017-06-14T03:55:01.317Z,13.94
2017-06-14T03:57:27.696Z,14.07
2017-06-14T03:59:54.018Z,13.18
2017-06-14T04:02:20.333Z,12.65
2017-06-14T04:04:46.687Z,12.91
2017-06-14T04:07:13.072Z,13.58
2017-06-14T04:09:39.475Z,13.27
2017-06-14T04:12:05.836Z,12.02
2017-06-14T04:14:32.163Z,12.19
2017-06-14T04:16:58.593Z,12.44
2017-06-14T04:19:24.910Z,12.85
2017-06-14T04:21:51.248Z,12.19
2017-06-14T04:24:17.611Z,12.07
2017-06-14T04:26:43.994Z,12.41
2017-06-14T04:29:10.342Z,13.12
2017-06-14T04:31:36.707Z,12.83
2017-06-14T04:34:03.060Z,12.00
2017-06-14T04:36:29.405Z,12.42
2017-06-14T04:38:55.726Z,12.42
2017-06-14T04:41:22.072Z,12.80
2017-06-14T04:43:48.385Z,12.49
2017-06-14T04:46:14.755Z,12.81
2017-06-14T04:48:41.102Z,13.36
2017-06-14T04:51:07.521Z,13.98
2017-06-14T04:53:33.941Z,14.56
2017-06-14T04:56:01.148Z,14.58
2017-06-14T04:58:27.479Z,14.12
2017-06-14T05:00:53.822Z,13.43
2017-06-14T05:03:20.189Z,14.24
2017-06-14T05:05:46.557Z,14.11
2017-06-14T05:08:17.672Z,13.80
2017-06-14T05:10:44.017Z,13.42
2017-06-14T05:13:11.165Z,13.10
2017-06-14T05:15:37.517Z,13.66
2017-06-14T05:18:03.862Z,13.26
2017-06-14T05:20:30.323Z,13.57
2017-06-14T05:22:56.642Z,14.43
2017-06-14T05:25:22.977Z,14.49
2017-06-14T05:27:49.329Z,14.27
2017-06-14T05:30:15.676Z,14.12
2017-06-14T05:32:42.457Z,14.07
2017-06-14T05:35:08.868Z,13.96
2017-06-14T05:37:35.214Z,15.13
2017-06-14T05:40:01.550Z,14.58
2017-06-14T05:42:27.882Z,13.95
2017-06-14T05:44:54.224Z,14.43
2017-06-14T05:47:20.559Z,14.71
2017-06-14T05:49:46.880Z,14.46
2017-06-14T05:52:13.233Z,14.04
2017-06-14T05:54:39.580Z,14.46
2017-06-14T05:57:05.926Z,15.18
2017-06-14T05:59:32.259Z,14.75
2017-06-14T06:01:58.594Z,15.22
2017-06-14T06:04:24.909Z,14.87
2017-06-14T06:06:51.256Z,14.97
2017-06-14T06:09:17.588Z,15.01
2017-06-14T06:11:43.933Z,15.43
2017-06-14T06:14:10.272Z,14.87
2017-06-14T06:16:36.606Z,14.80
2017-06-14T06:19:02.932Z,14.83
2017-06-14T06:21:29.234Z,14.91
2017-06-14T06:23:55.604Z,15.13
2017-06-14T06:26:21.927Z,15.11
2017-06-14T06:28:48.250Z,15.70
2017-06-14T06:31:14.562Z,15.40
2017-06-14T06:33:40.877Z,15.90
2017-06-14T06:36:07.239Z,15.99
2017-06-14T06:38:33.583Z,15.88
2017-06-14T06:40:59.918Z,15.94
2017-06-14T06:43:26.226Z,16.39
2017-06-14T06:45:52.634Z,15.99
2017-06-14T06:48:18.992Z,15.88
2017-06-14T06:50:45.338Z,16.00
2017-06-14T06:53:11.665Z,15.98
2017-06-14T06:55:38.015Z,16.18
2017-06-14T06:58:04.365Z,16.16
2017-06-14T07:00:30.685Z,16.27
2017-06-14T07:02:57.060Z,16.34
2017-06-14T07:05:23.414Z,16.30
2017-06-14T07:07:49.742Z,16.21
2017-06-14T07:10:16.089Z,16.29
2017-06-14T07:12:42.429Z,16.64
2017-06-14T07:15:08.750Z,16.75
2017-06-14T07:17:35.074Z,16.60
2017-06-14T07:20:01.386Z,16.69
2017-06-14T07:22:27.741Z,16.82
2017-06-14T07:24:54.112Z,16.81
2017-06-14T07:27:20.422Z,16.87
2017-06-14T07:29:46.736Z,16.90
2017-06-14T07:32:13.082Z,16.88
2017-06-14T07:34:39.431Z,17.15
2017-06-14T07:37:05.813Z,17.48
2017-06-14T07:39:32.152Z,17.32
2017-06-14T07:41:58.508Z,17.38
2017-06-14T07:44:24.854Z,17.53
2017-06-14T07:46:51.169Z,17.41
2017-06-14T07:49:17.530Z,17.56
2017-06-14T07:51:43.848Z,17.52
2017-06-14T07:54:10.178Z,17.68
2017-06-14T07:56:36.498Z,17.72
2017-06-14T07:59:02.853Z,17.84
2017-06-14T08:01:29.205Z,18.00
2017-06-14T08:03:55.548Z,17.93
2017-06-14T08:06:21.888Z,17.87
2017-06-14T08:08:48.241Z,18.17
2017-06-14T08:11:14.587Z,18.28
2017-06-14T08:13:40.923Z,18.34
2017-06-14T08:16:07.245Z,18.26
2017-06-14T08:18:34.447Z,19.02
2017-06-14T08:21:00.852Z,18.68
2017-06-14T08:23:27.177Z,18.31
2017-06-14T08:25:53.642Z,18.90
2017-06-14T08:28:19.993Z,19.14
2017-06-14T08:30:46.338Z,19.01
2017-06-14T08:33:12.703Z,19.07
2017-06-14T08:35:39.065Z,19.14
2017-06-14T08:38:05.424Z,19.33
2017-06-14T08:40:31.766Z,19.37
2017-06-14T08:42:58.105Z,19.26
2017-06-14T08:45:24.426Z,19.58
2017-06-14T08:47:50.749Z,19.97
2017-06-14T08:50:17.085Z,19.72
2017-06-14T08:52:43.394Z,19.98
2017-06-14T08:55:09.736Z,20.47
2017-06-14T08:57:36.095Z,20.47
2017-06-14T09:00:02.448Z,20.48
2017-06-14T09:02:28.798Z,20.69
2017-06-14T09:04:55.129Z,21.44
2017-06-14T09:07:21.455Z,20.76
2017-06-14T09:09:47.782Z,21.32
2017-06-14T09:12:14.118Z,21.47
2017-06-14T09:14:40.442Z,21.44
2017-06-14T09:17:06.786Z,20.97
2017-06-14T09:19:33.128Z,21.64
2017-06-14T09:21:59.472Z,21.46
2017-06-14T09:24:25.801Z,21.22
2017-06-14T09:26:52.151Z,21.96
2017-06-14T09:29:18.479Z,21.73
2017-06-14T09:31:44.969Z,21.21
2017-06-14T09:34:11.311Z,22.19
2017-06-14T09:36:37.679Z,21.71
2017-06-14T09:39:04.046Z,22.72
2017-06-14T09:41:30.499Z,23.02
2017-06-14T09:43:56.810Z,22.61
2017-06-14T09:46:23.133Z,22.92
2017-06-14T09:48:49.462Z,23.23
2017-06-14T09:51:15.799Z,22.89
2017-06-14T09:53:42.140Z,23.11
2017-06-14T09:56:08.507Z,22.61
2017-06-14T09:58:34.856Z,23.16
2017-06-14T10:01:01.190Z,23.66
2017-06-14T10:03:27.520Z,23.74
2017-06-14T10:05:53.850Z,23.61
2017-06-14T10:08:20.154Z,23.10
2017-06-14T10:10:46.485Z,23.36
2017-06-14T10:13:12.830Z,23.19
2017-06-14T10:15:39.178Z,23.49
2017-06-14T10:18:05.502Z,23.80
2017-06-14T10:20:31.846Z,24.07
2017-06-14T10:22:58.187Z,23.37
2017-06-14T10:25:24.506Z,23.83
2017-06-14T10:27:50.900Z,23.30
2017-06-14T10:30:17.238Z,22.85
2017-06-14T10:32:43.592Z,24.85
2017-06-14T10:35:09.977Z,24.05
2017-06-14T10:37:36.347Z,24.24
2017-06-14T10:40:02.719Z,24.58
2017-06-14T10:42:29.046Z,24.06
2017-06-14T10:44:55.428Z,24.48
2017-06-14T10:47:21.790Z,24.16
2017-06-14T10:49:48.129Z,23.99
2017-06-14T10:52:14.462Z,24.63
2017-06-14T10:54:40.819Z,25.09
2017-06-14T10:57:07.145Z,24.85
2017-06-14T10:59:33.497Z,25.02
2017-06-14T11:01:59.864Z,24.93
2017-06-14T11:04:26.229Z,24.69
2017-06-14T11:06:52.574Z,24.72
2017-06-14T11:09:18.940Z,24.70
2017-06-14T11:11:45.266Z,24.78
2017-06-14T11:14:11.594Z,25.15
2017-06-14T11:16:37.921Z,24.98
2017-06-14T11:19:04.235Z,25.27
2017-06-14T11:21:30.539Z,25.18
2017-06-14T11:23:56.890Z,24.64
2017-06-14T11:26:23.239Z,25.36
2017-06-14T11:28:49.613Z,25.47
2017-06-14T11:31:15.986Z,25.36
2017-06-14T11:33:42.303Z,25.25
2017-06-14T11:36:08.659Z,25.55
2017-06-14T11:38:35.000Z,25.67
2017-06-14T11:41:01.327Z,25.58
2017-06-14T11:43:27.693Z,25.66
2017-06-14T11:45:54.015Z,26.11
2017-06-14T11:48:20.369Z,25.62
2017-06-14T11:50:46.726Z,25.76
2017-06-14T11:53:13.060Z,26.10
2017-06-14T11:55:39.446Z,25.90
2017-06-14T11:58:05.790Z,26.04
2017-06-14T12:00:32.157Z,26.03
2017-06-14T12:02:58.520Z,26.54
2017-06-14T12:05:24.844Z,26.27
2017-06-14T12:07:51.192Z,26.62
2017-06-14T12:10:17.533Z,26.67
2017-06-14T12:12:43.993Z,26.67
2017-06-14T12:15:10.358Z,26.72
2017-06-14T12:17:36.709Z,27.27
2017-06-14T12:20:03.088Z,26.45
2017-06-14T12:22:29.454Z,26.46
2017-06-14T12:24:55.799Z,26.68
2017-06-14T12:27:22.174Z,26.97
2017-06-14T12:29:48.529Z,27.38
2017-06-14T12:32:14.879Z,25.99
2017-06-14T12:34:41.271Z,26.96
2017-06-14T12:37:07.619Z,26.64
2017-06-14T12:39:33.941Z,27.63
2017-06-14T12:42:00.292Z,27.13
2017-06-14T12:44:26.634Z,27.34
2017-06-14T12:46:52.967Z,27.35
2017-06-14T12:49:19.335Z,27.48
2017-06-14T12:51:45.725Z,27.22
2017-06-14T12:54:12.085Z,26.97
2017-06-14T12:56:38.441Z,27.81
2017-06-14T12:59:04.765Z,27.56
2017-06-14T13:01:31.154Z,27.65
2017-06-14T13:03:57.536Z,27.25
2017-06-14T13:06:23.888Z,27.10
2017-06-14T13:08:50.220Z,27.91
2017-06-14T13:11:16.593Z,26.65
2017-06-14T13:13:42.935Z,26.09
2017-06-14T13:16:09.268Z,27.24
2017-06-14T13:18:35.632Z,27.72
2017-06-14T13:21:01.950Z,27.65
2017-06-14T13:23:28.300Z,27.41
2017-06-14T13:25:54.709Z,27.80
2017-06-14T13:28:21.089Z,27.88
2017-06-14T13:30:47.453Z,27.41
2017-06-14T13:33:13.810Z,27.74
2017-06-14T13:35:40.142Z,27.41
2017-06-14T13:38:06.493Z,26.73
2017-06-14T13:40:32.841Z,26.91
2017-06-14T13:42:59.237Z,27.79
2017-06-14T13:45:25.607Z,27.56
2017-06-14T13:47:51.938Z,26.66
2017-06-14T13:50:18.289Z,27.94
2017-06-14T13:52:44.652Z,27.49
2017-06-14T13:55:11.014Z,28.09
2017-06-14T13:57:37.370Z,27.00
2017-06-14T14:00:03.754Z,27.64
2017-06-14T14:02:30.088Z,28.87
2017-06-14T14:04:56.497Z,28.68
2017-06-14T14:07:22.884Z,28.75
2017-06-14T14:09:49.364Z,28.48
2017-06-14T14:12:16.173Z,28.70
2017-06-14T14:14:42.562Z,28.96
2017-06-14T14:17:09.040Z,28.18
2017-06-14T14:19:35.429Z,28.40
2017-06-14T14:22:01.795Z,28.58
2017-06-14T14:24:28.135Z,28.40
2017-06-14T14:26:54.485Z,28.44
2017-06-14T14:29:20.854Z,28.22
2017-06-14T14:31:47.190Z,28.38
2017-06-14T14:34:13.526Z,27.99
2017-06-14T14:36:39.873Z,28.25
2017-06-14T14:39:06.226Z,28.33
2017-06-14T14:41:32.589Z,27.88
2017-06-14T14:43:59.127Z,28.23
2017-06-14T14:46:25.602Z,28.59
2017-06-14T14:48:51.944Z,28.80
2017-06-14T14:51:18.270Z,29.02
2017-06-14T14:53:44.605Z,28.71
2017-06-14T14:56:10.954Z,28.69
2017-06-14T14:58:37.366Z,29.25
2017-06-14T15:01:03.742Z,28.87
2017-06-14T15:03:30.097Z,28.68
2017-06-14T15:05:56.500Z,28.64
2017-06-14T15:08:22.899Z,28.56
2017-06-14T15:10:49.275Z,28.75
2017-06-14T15:13:16.270Z,28.70
2017-06-14T15:15:42.754Z,29.02
2017-06-14T15:18:09.114Z,28.99
2017-06-14T15:20:35.486Z,28.67
2017-06-14T15:23:01.860Z,28.45
2017-06-14T15:25:28.214Z,29.11
2017-06-14T15:27:54.578Z,28.97
2017-06-14T15:30:20.935Z,28.70
2017-06-14T15:32:47.272Z,29.07
2017-06-14T15:35:13.685Z,28.86
2017-06-14T15:37:40.601Z,28.78
2017-06-14T15:40:06.943Z,28.92
2017-06-14T15:42:33.873Z,28.84
2017-06-14T15:45:00.558Z,28.85
2017-06-14T15:47:27.507Z,28.58
2017-06-14T15:49:53.920Z,29.03
2017-06-14T15:52:20.716Z,28.73
2017-06-14T15:54:47.090Z,28.67
2017-06-14T15:57:13.451Z,28.66
2017-06-14T15:59:39.804Z,28.66
2017-06-14T16:02:06.469Z,28.53
2017-06-14T16:04:33.276Z,28.76
2017-06-14T16:06:59.749Z,28.64
2017-06-14T16:09:26.082Z,28.94
2017-06-14T16:11:52.458Z,28.96
2017-06-14T16:14:18.848Z,28.73
2017-06-14T16:16:45.185Z,28.52
2017-06-14T16:19:12.047Z,28.98
2017-06-14T16:21:38.765Z,28.49
2017-06-14T16:24:06.523Z,28.89
2017-06-14T16:26:33.037Z,28.82
2017-06-14T16:28:59.462Z,28.85
2017-06-14T16:31:25.843Z,28.97
2017-06-14T16:33:52.213Z,28.53
2017-06-14T16:36:18.641Z,28.45
2017-06-14T16:38:45.084Z,28.98
2017-06-14T16:41:11.436Z,28.61
2017-06-14T16:43:37.812Z,28.62
2017-06-14T16:46:04.606Z,29.04
2017-06-14T16:48:30.933Z,28.94
2017-06-14T16:50:57.278Z,28.65
2017-06-14T16:53:23.651Z,28.50
2017-06-14T16:55:50.009Z,28.71
2017-06-14T16:58:16.369Z,28.80
2017-06-14T17:00:42.702Z,28.72
2017-06-14T17:03:09.054Z,28.49
2017-06-14T17:05:35.396Z,28.00
2017-06-14T17:08:02.045Z,28.48
2017-06-14T17:10:28.389Z,28.25
2017-06-14T17:12:54.726Z,28.06
2017-06-14T17:15:21.111Z,28.26
2017-06-14T17:17:47.429Z,28.33
2017-06-14T17:20:13.758Z,28.05
2017-06-14T17:22:40.092Z,27.90
2017-06-14T17:25:06.434Z,27.85
2017-06-14T17:27:32.775Z,27.70
2017-06-14T17:29:59.087Z,27.29
2017-06-14T17:32:25.425Z,27.44
2017-06-14T17:34:51.833Z,27.36
2017-06-14T17:37:18.172Z,27.08
2017-06-14T17:39:44.496Z,26.80
2017-06-14T17:42:10.832Z,26.93
2017-06-14T17:44:37.200Z,26.68
2017-06-14T17:47:03.511Z,26.71
2017-06-14T17:49:29.913Z,26.51
2017-06-14T17:51:56.269Z,26.55
2017-06-14T17:54:22.614Z,26.42
2017-06-14T17:56:48.973Z,26.31
2017-06-14T17:59:15.307Z,25.94
2017-06-14T18:01:41.635Z,25.79
2017-06-14T18:04:08.006Z,25.66
2017-06-14T18:06:34.370Z,25.67
2017-06-14T18:09:00.783Z,25.74
2017-06-14T18:11:27.149Z,25.71
2017-06-14T18:13:54.165Z,25.53
2017-06-14T18:16:20.530Z,25.39
2017-06-14T18:18:47.193Z,25.47
2017-06-14T18:21:13.819Z,25.27
2017-06-14T18:23:40.168Z,25.19
2017-06-14T18:26:06.589Z,25.01
2017-06-14T18:28:33.008Z,24.89
2017-06-14T18:30:59.382Z,25.05
2017-06-14T18:33:25.700Z,24.99
2017-06-14T18:35:52.084Z,24.79
2017-06-14T18:38:18.387Z,24.73
2017-06-14T18:40:44.715Z,24.71
2017-06-14T18:43:11.070Z,24.77
2017-06-14T18:45:37.378Z,24.73
2017-06-14T18:48:03.726Z,24.61
2017-06-14T18:50:30.123Z,24.57
2017-06-14T18:52:56.453Z,24.36
2017-06-14T18:55:22.842Z,24.46
2017-06-14T18:57:49.236Z,24.50
2017-06-14T19:00:15.609Z,24.19
2017-06-14T19:02:42.048Z,24.15
2017-06-14T19:05:08.413Z,24.09
2017-06-14T19:07:34.754Z,24.09
2017-06-14T19:10:01.149Z,24.04
2017-06-14T19:12:27.517Z,23.78
2017-06-14T19:14:53.920Z,23.88
2017-06-14T19:17:20.297Z,24.08
2017-06-14T19:19:46.713Z,24.05
2017-06-14T19:22:13.290Z,23.83
2017-06-14T19:24:39.623Z,23.64
2017-06-14T19:27:05.986Z,23.68
2017-06-14T19:29:32.427Z,23.69
2017-06-14T19:31:58.828Z,23.26
2017-06-14T19:34:25.194Z,23.48
2017-06-14T19:36:51.537Z,23.46
2017-06-14T19:39:17.924Z,23.37
2017-06-14T19:41:44.395Z,23.37
2017-06-14T19:44:10.756Z,23.28
2017-06-14T19:46:37.159Z,23.25
2017-06-14T19:49:03.525Z,23.28
2017-06-14T19:51:29.927Z,23.31
2017-06-14T19:53:56.279Z,23.24
2017-06-14T19:56:22.628Z,23.23
2017-06-14T19:58:49.896Z,23.20
2017-06-14T20:01:16.240Z,22.99
2017-06-14T20:03:42.585Z,22.94
2017-06-14T20:06:09.282Z,22.87
2017-06-14T20:08:35.674Z,22.94
2017-06-14T20:11:02.074Z,22.75
2017-06-14T20:13:28.492Z,22.75
2017-06-14T20:15:54.874Z,22.76
2017-06-14T20:20:52.671Z,22.55
2017-06-14T20:23:19.125Z,22.51
2017-06-14T20:25:45.496Z,22.57
2017-06-14T20:28:11.878Z,22.40
2017-06-14T20:30:38.291Z,22.42
2017-06-14T20:33:04.723Z,22.25
2017-06-14T20:35:31.093Z,22.30
2017-06-14T20:37:57.481Z,22.20
2017-06-14T20:40:23.843Z,22.10
2017-06-14T20:42:50.175Z,21.97
2017-06-14T20:45:16.554Z,21.95
2017-06-14T20:47:42.879Z,21.88
2017-06-14T20:50:09.217Z,21.90
2017-06-14T20:52:35.560Z,21.92
2017-06-14T20:55:01.929Z,21.83
2017-06-14T20:57:28.265Z,21.90
2017-06-14T20:59:54.593Z,21.75
2017-06-14T21:02:20.929Z,21.42
2017-06-14T21:04:59.436Z,21.36
2017-06-14T21:07:25.799Z,21.44
2017-06-14T21:09:52.166Z,21.54
2017-06-14T21:12:18.581Z,21.37
2017-06-14T21:14:44.943Z,21.45
2017-06-14T21:17:11.302Z,21.31
2017-06-14T21:19:37.647Z,21.43
2017-06-14T21:22:04.033Z,21.27
2017-06-14T21:24:30.540Z,21.31
2017-06-14T21:26:56.901Z,21.20
2017-06-14T21:29:23.253Z,21.21
2017-06-14T21:31:49.583Z,21.14
2017-06-14T21:34:15.957Z,21.16
2017-06-14T21:36:42.841Z,21.13
2017-06-14T21:39:09.255Z,20.94
2017-06-14T21:41:35.618Z,20.88
2017-06-14T21:44:04.068Z,20.88
2017-06-14T21:46:30.654Z,20.96
2017-06-14T21:48:57.013Z,20.64
2017-06-14T21:51:23.382Z,20.69
2017-06-14T21:53:49.760Z,20.87
2017-06-14T21:56:16.126Z,20.63
2017-06-14T21:58:42.468Z,20.63
2017-06-14T22:01:08.822Z,20.54
2017-06-14T22:03:35.126Z,20.54
2017-06-14T22:06:02.154Z,20.50
2017-06-14T22:08:28.490Z,20.43
2017-06-14T22:10:54.793Z,20.41
2017-06-14T22:13:21.507Z,20.32
2017-06-14T22:15:47.920Z,20.07
2017-06-14T22:18:14.255Z,20.14
2017-06-14T22:20:40.622Z,20.14
2017-06-14T22:23:06.961Z,20.20
2017-06-14T22:25:33.301Z,20.06
2017-06-14T22:27:59.634Z,20.08
2017-06-14T22:30:26.363Z,20.27
2017-06-14T22:32:53.154Z,19.97
2017-06-14T22:35:19.543Z,19.98
2017-06-14T22:37:45.914Z,20.15
2017-06-14T22:40:12.725Z,19.55
2017-06-14T22:42:39.090Z,19.83
2017-06-14T22:45:05.441Z,19.82
2017-06-14T22:47:31.817Z,19.95
2017-06-14T22:49:58.236Z,19.93
2017-06-14T22:52:24.962Z,19.85
2017-06-14T22:54:51.295Z,19.77
2017-06-14T22:57:18.086Z,19.89
2017-06-14T22:59:44.432Z,19.64
2017-06-14T23:02:11.045Z,19.66
2017-06-14T23:04:37.464Z,19.52
2017-06-14T23:07:03.795Z,19.47
2017-06-14T23:09:30.127Z,19.34
2017-06-14T23:11:56.520Z,19.37
2017-06-14T23:14:22.859Z,19.56
2017-06-14T23:16:49.197Z,19.56
2017-06-14T23:19:16.098Z,19.55
2017-06-14T23:21:42.819Z,19.56
2017-06-14T23:24:09.552Z,19.25
2017-06-14T23:26:36.416Z,19.36
2017-06-14T23:29:03.330Z,19.26
2017-06-14T23:31:29.991Z,19.02
2017-06-14T23:33:56.701Z,19.29
2017-06-14T23:36:23.425Z,19.30
2017-06-14T23:38:50.337Z,19.30
2017-06-14T23:41:17.168Z,19.30
2017-06-14T23:43:43.681Z,19.32
2017-06-14T23:46:10.023Z,19.02
2017-06-14T23:48:36.365Z,18.99
2017-06-14T23:51:02.743Z,18.67
2017-06-14T23:53:29.084Z,18.91
2017-06-14T23:55:55.404Z,18.97
2017-06-14T23:58:21.855Z,18.98
